sensor_id;sensor_type;location;lat;lon;timestamp;P1;durP1;ratioP1;P2;durP2;ratioP2
11171;SDS011;5642;50.830;12.082;2022-12-07T00:01:31;2.55;;;2.35;;
11171;SDS011;5642;50.830;12.082;2022-12-07T00:04:04;2.65;;;2.45;;
11171;SDS011;5642;50.830;12.082;2022-12-07T00:06:42;3.20;;;2.90;;
11171;SDS011;5642;50.830;12.082;2022-12-07T00:09:11;3.08;;;2.88;;
11171;SDS011;5642;50.830;12.082;2022-12-07T00:11:42;2.78;;;2.58;;
11171;SDS011;5642;50.830;12.082;2022-12-07T00:14:12;2.83;;;2.63;;
11171;SDS011;5642;50.830;12.082;2022-12-07T00:16:40;3.05;;;2.80;;
11171;SDS011;5642;50.830;12.082;2022-12-07T00:19:10;3.30;;;3.00;;
11171;SDS011;5642;50.830;12.082;2022-12-07T00:21:38;2.95;;;2.72;;
11171;SDS011;5642;50.830;12.082;2022-12-07T00:24:04;2.83;;;2.63;;
11171;SDS011;5642;50.830;12.082;2022-12-07T00:26:35;3.08;;;2.78;;
11171;SDS011;5642;50.830;12.082;2022-12-07T00:29:07;2.80;;;2.60;;
11171;SDS011;5642;50.830;12.082;2022-12-07T00:31:41;2.95;;;2.65;;
11171;SDS011;5642;50.830;12.082;2022-12-07T00:34:12;2.85;;;2.63;;
11171;SDS011;5642;50.830;12.082;2022-12-07T00:36:42;2.70;;;2.50;;
11171;SDS011;5642;50.830;12.082;2022-12-07T00:39:11;3.05;;;2.75;;
11171;SDS011;5642;50.830;12.082;2022-12-07T00:41:38;2.88;;;2.58;;
11171;SDS011;5642;50.830;12.082;2022-12-07T00:44:04;2.90;;;2.60;;
11171;SDS011;5642;50.830;12.082;2022-12-07T00:46:33;3.00;;;2.70;;
11171;SDS011;5642;50.830;12.082;2022-12-07T00:49:03;2.60;;;2.40;;
11171;SDS011;5642;50.830;12.082;2022-12-07T00:51:29;2.60;;;2.40;;
11171;SDS011;5642;50.830;12.082;2022-12-07T00:53:55;2.35;;;2.15;;
11171;SDS011;5642;50.830;12.082;2022-12-07T00:56:26;2.42;;;2.22;;
11171;SDS011;5642;50.830;12.082;2022-12-07T00:58:57;2.45;;;2.22;;
11171;SDS011;5642;50.830;12.082;2022-12-07T01:01:28;2.28;;;2.08;;
11171;SDS011;5642;50.830;12.082;2022-12-07T01:03:56;2.17;;;2.00;;
11171;SDS011;5642;50.830;12.082;2022-12-07T01:06:26;2.15;;;2.00;;
11171;SDS011;5642;50.830;12.082;2022-12-07T01:08:53;2.15;;;1.98;;
11171;SDS011;5642;50.830;12.082;2022-12-07T01:11:21;2.33;;;2.13;;
11171;SDS011;5642;50.830;12.082;2022-12-07T01:13:50;2.45;;;2.13;;
11171;SDS011;5642;50.830;12.082;2022-12-07T01:16:18;2.22;;;1.98;;
11171;SDS011;5642;50.830;12.082;2022-12-07T01:18:46;2.00;;;1.90;;
11171;SDS011;5642;50.830;12.082;2022-12-07T01:21:22;2.55;;;2.35;;
11171;SDS011;5642;50.830;12.082;2022-12-07T01:23:50;2.20;;;2.00;;
11171;SDS011;5642;50.830;12.082;2022-12-07T01:26:19;2.05;;;1.90;;
11171;SDS011;5642;50.830;12.082;2022-12-07T01:28:47;2.00;;;1.90;;
11171;SDS011;5642;50.830;12.082;2022-12-07T01:31:15;1.80;;;1.70;;
11171;SDS011;5642;50.830;12.082;2022-12-07T01:33:44;1.98;;;1.88;;
11171;SDS011;5642;50.830;12.082;2022-12-07T01:36:16;1.92;;;1.80;;
11171;SDS011;5642;50.830;12.082;2022-12-07T01:38:43;2.00;;;1.85;;
11171;SDS011;5642;50.830;12.082;2022-12-07T01:41:11;2.60;;;2.30;;
11171;SDS011;5642;50.830;12.082;2022-12-07T01:44:07;2.42;;;2.22;;
11171;SDS011;5642;50.830;12.082;2022-12-07T01:46:36;2.30;;;2.10;;
11171;SDS011;5642;50.830;12.082;2022-12-07T01:49:06;2.13;;;1.98;;
11171;SDS011;5642;50.830;12.082;2022-12-07T01:51:38;2.50;;;2.30;;
11171;SDS011;5642;50.830;12.082;2022-12-07T01:54:07;2.10;;;2.00;;
11171;SDS011;5642;50.830;12.082;2022-12-07T01:56:37;1.85;;;1.75;;
11171;SDS011;5642;50.830;12.082;2022-12-07T01:59:08;2.33;;;2.13;;
11171;SDS011;5642;50.830;12.082;2022-12-07T02:01:35;2.10;;;1.90;;
11171;SDS011;5642;50.830;12.082;2022-12-07T02:04:02;2.47;;;1.80;;
11171;SDS011;5642;50.830;12.082;2022-12-07T02:06:29;2.07;;;1.97;;
11171;SDS011;5642;50.830;12.082;2022-12-07T02:08:56;2.43;;;2.23;;
11171;SDS011;5642;50.830;12.082;2022-12-07T02:11:22;2.10;;;1.90;;
11171;SDS011;5642;50.830;12.082;2022-12-07T02:13:49;2.20;;;2.00;;
11171;SDS011;5642;50.830;12.082;2022-12-07T02:21:52;1.67;;;1.57;;
11171;SDS011;5642;50.830;12.082;2022-12-07T02:24:36;1.90;;;1.80;;
11171;SDS011;5642;50.830;12.082;2022-12-07T02:30:04;1.83;;;1.73;;
11171;SDS011;5642;50.830;12.082;2022-12-07T02:35:21;1.70;;;1.60;;
11171;SDS011;5642;50.830;12.082;2022-12-07T02:40:34;1.60;;;1.50;;
11171;SDS011;5642;50.830;12.082;2022-12-07T02:45:53;1.73;;;1.63;;
11171;SDS011;5642;50.830;12.082;2022-12-07T02:48:28;1.70;;;1.60;;
11171;SDS011;5642;50.830;12.082;2022-12-07T02:50:57;1.83;;;1.73;;
11171;SDS011;5642;50.830;12.082;2022-12-07T02:56:08;1.75;;;1.65;;
11171;SDS011;5642;50.830;12.082;2022-12-07T03:04:07;1.60;;;1.50;;
11171;SDS011;5642;50.830;12.082;2022-12-07T03:06:53;1.60;;;1.50;;
11171;SDS011;5642;50.830;12.082;2022-12-07T03:09:32;1.70;;;1.60;;
11171;SDS011;5642;50.830;12.082;2022-12-07T03:12:10;1.57;;;1.47;;
11171;SDS011;5642;50.830;12.082;2022-12-07T03:14:46;1.60;;;1.50;;
11171;SDS011;5642;50.830;12.082;2022-12-07T03:17:20;1.60;;;1.50;;
11171;SDS011;5642;50.830;12.082;2022-12-07T03:19:50;1.70;;;1.60;;
11171;SDS011;5642;50.830;12.082;2022-12-07T03:22:20;1.57;;;1.47;;
11171;SDS011;5642;50.830;12.082;2022-12-07T03:24:55;1.60;;;1.50;;
11171;SDS011;5642;50.830;12.082;2022-12-07T03:28:06;1.63;;;1.52;;
11171;SDS011;5642;50.830;12.082;2022-12-07T03:30:27;1.60;;;1.50;;
11171;SDS011;5642;50.830;12.082;2022-12-07T03:33:11;1.70;;;1.60;;
11171;SDS011;5642;50.830;12.082;2022-12-07T03:36:21;1.50;;;1.40;;
11171;SDS011;5642;50.830;12.082;2022-12-07T03:41:42;1.50;;;1.40;;
11171;SDS011;5642;50.830;12.082;2022-12-07T03:44:08;1.40;;;1.30;;
11171;SDS011;5642;50.830;12.082;2022-12-07T03:46:48;1.43;;;1.33;;
11171;SDS011;5642;50.830;12.082;2022-12-07T03:54:53;1.50;;;1.40;;
11171;SDS011;5642;50.830;12.082;2022-12-07T03:57:26;1.40;;;1.30;;
11171;SDS011;5642;50.830;12.082;2022-12-07T03:59:55;1.40;;;1.30;;
11171;SDS011;5642;50.830;12.082;2022-12-07T04:02:23;1.33;;;1.23;;
11171;SDS011;5642;50.830;12.082;2022-12-07T04:04:52;1.42;;;1.33;;
11171;SDS011;5642;50.830;12.082;2022-12-07T04:07:18;1.30;;;1.20;;
11171;SDS011;5642;50.830;12.082;2022-12-07T04:09:44;1.40;;;1.30;;
11171;SDS011;5642;50.830;12.082;2022-12-07T04:12:10;1.40;;;1.30;;
11171;SDS011;5642;50.830;12.082;2022-12-07T04:14:36;1.30;;;1.20;;
11171;SDS011;5642;50.830;12.082;2022-12-07T04:17:03;1.10;;;1.10;;
11171;SDS011;5642;50.830;12.082;2022-12-07T04:19:30;1.35;;;1.25;;
11171;SDS011;5642;50.830;12.082;2022-12-07T04:22:00;1.25;;;1.17;;
11171;SDS011;5642;50.830;12.082;2022-12-07T04:24:27;1.10;;;1.10;;
11171;SDS011;5642;50.830;12.082;2022-12-07T04:26:53;1.50;;;1.40;;
11171;SDS011;5642;50.830;12.082;2022-12-07T04:29:19;1.13;;;1.13;;
11171;SDS011;5642;50.830;12.082;2022-12-07T04:31:59;1.60;;;1.50;;
11171;SDS011;5642;50.830;12.082;2022-12-07T04:34:29;1.40;;;1.30;;
11171;SDS011;5642;50.830;12.082;2022-12-07T04:36:55;1.30;;;1.25;;
11171;SDS011;5642;50.830;12.082;2022-12-07T04:39:27;1.10;;;1.10;;
11171;SDS011;5642;50.830;12.082;2022-12-07T04:41:57;1.30;;;1.20;;
11171;SDS011;5642;50.830;12.082;2022-12-07T04:44:24;1.40;;;1.30;;
11171;SDS011;5642;50.830;12.082;2022-12-07T04:46:53;1.45;;;1.35;;
11171;SDS011;5642;50.830;12.082;2022-12-07T04:49:22;1.15;;;1.00;;
11171;SDS011;5642;50.830;12.082;2022-12-07T04:51:49;1.40;;;1.30;;
11171;SDS011;5642;50.830;12.082;2022-12-07T04:54:16;1.33;;;1.23;;
11171;SDS011;5642;50.830;12.082;2022-12-07T04:56:44;1.00;;;1.00;;
11171;SDS011;5642;50.830;12.082;2022-12-07T04:59:11;1.15;;;1.15;;
11171;SDS011;5642;50.830;12.082;2022-12-07T05:01:38;1.35;;;1.25;;
11171;SDS011;5642;50.830;12.082;2022-12-07T05:04:10;1.27;;;1.20;;
11171;SDS011;5642;50.830;12.082;2022-12-07T05:06:37;1.10;;;1.10;;
11171;SDS011;5642;50.830;12.082;2022-12-07T05:09:04;1.50;;;1.40;;
11171;SDS011;5642;50.830;12.082;2022-12-07T05:11:31;1.73;;;1.63;;
11171;SDS011;5642;50.830;12.082;2022-12-07T05:14:14;1.48;;;1.38;;
11171;SDS011;5642;50.830;12.082;2022-12-07T05:16:44;1.40;;;1.30;;
11171;SDS011;5642;50.830;12.082;2022-12-07T05:19:11;1.45;;;1.35;;
11171;SDS011;5642;50.830;12.082;2022-12-07T05:21:37;1.33;;;1.23;;
11171;SDS011;5642;50.830;12.082;2022-12-07T05:24:08;1.55;;;1.38;;
11171;SDS011;5642;50.830;12.082;2022-12-07T05:26:35;1.52;;;1.42;;
11171;SDS011;5642;50.830;12.082;2022-12-07T05:29:02;1.45;;;1.35;;
11171;SDS011;5642;50.830;12.082;2022-12-07T05:31:29;1.30;;;1.20;;
11171;SDS011;5642;50.830;12.082;2022-12-07T05:33:58;1.17;;;1.15;;
11171;SDS011;5642;50.830;12.082;2022-12-07T05:36:26;2.17;;;1.40;;
11171;SDS011;5642;50.830;12.082;2022-12-07T05:38:54;1.40;;;1.30;;
11171;SDS011;5642;50.830;12.082;2022-12-07T05:41:20;1.95;;;1.35;;
11171;SDS011;5642;50.830;12.082;2022-12-07T05:44:05;1.40;;;1.30;;
11171;SDS011;5642;50.830;12.082;2022-12-07T05:46:31;1.52;;;1.42;;
11171;SDS011;5642;50.830;12.082;2022-12-07T05:48:58;1.25;;;1.25;;
11171;SDS011;5642;50.830;12.082;2022-12-07T05:51:24;1.60;;;1.50;;
11171;SDS011;5642;50.830;12.082;2022-12-07T05:53:50;2.13;;;1.60;;
11171;SDS011;5642;50.830;12.082;2022-12-07T05:56:16;1.50;;;1.40;;
11171;SDS011;5642;50.830;12.082;2022-12-07T05:58:42;1.48;;;1.38;;
11171;SDS011;5642;50.830;12.082;2022-12-07T06:01:27;1.50;;;1.40;;
11171;SDS011;5642;50.830;12.082;2022-12-07T06:03:54;1.52;;;1.42;;
11171;SDS011;5642;50.830;12.082;2022-12-07T06:06:20;1.13;;;1.10;;
11171;SDS011;5642;50.830;12.082;2022-12-07T06:08:46;1.42;;;1.33;;
11171;SDS011;5642;50.830;12.082;2022-12-07T06:11:15;1.50;;;1.40;;
11171;SDS011;5642;50.830;12.082;2022-12-07T06:14:00;1.40;;;1.30;;
11171;SDS011;5642;50.830;12.082;2022-12-07T06:16:26;1.30;;;1.20;;
11171;SDS011;5642;50.830;12.082;2022-12-07T06:18:52;1.27;;;1.20;;
11171;SDS011;5642;50.830;12.082;2022-12-07T06:21:18;1.20;;;1.20;;
11171;SDS011;5642;50.830;12.082;2022-12-07T06:23:45;1.50;;;1.40;;
11171;SDS011;5642;50.830;12.082;2022-12-07T06:26:13;1.45;;;1.35;;
11171;SDS011;5642;50.830;12.082;2022-12-07T06:28:39;1.35;;;1.20;;
11171;SDS011;5642;50.830;12.082;2022-12-07T06:31:07;1.42;;;1.33;;
11171;SDS011;5642;50.830;12.082;2022-12-07T06:33:34;1.13;;;1.13;;
11171;SDS011;5642;50.830;12.082;2022-12-07T06:36:00;1.40;;;1.30;;
11171;SDS011;5642;50.830;12.082;2022-12-07T06:38:26;1.63;;;1.52;;
11171;SDS011;5642;50.830;12.082;2022-12-07T06:40:54;1.42;;;1.33;;
11171;SDS011;5642;50.830;12.082;2022-12-07T06:43:21;1.45;;;1.35;;
11171;SDS011;5642;50.830;12.082;2022-12-07T06:45:47;1.38;;;1.27;;
11171;SDS011;5642;50.830;12.082;2022-12-07T06:48:15;1.48;;;1.38;;
11171;SDS011;5642;50.830;12.082;2022-12-07T06:50:43;1.55;;;1.45;;
11171;SDS011;5642;50.830;12.082;2022-12-07T06:53:13;1.55;;;1.45;;
11171;SDS011;5642;50.830;12.082;2022-12-07T06:55:40;1.70;;;1.60;;
11171;SDS011;5642;50.830;12.082;2022-12-07T06:58:07;1.50;;;1.40;;
11171;SDS011;5642;50.830;12.082;2022-12-07T07:00:36;1.45;;;1.35;;
11171;SDS011;5642;50.830;12.082;2022-12-07T07:03:02;1.45;;;1.35;;
11171;SDS011;5642;50.830;12.082;2022-12-07T07:05:28;1.60;;;1.50;;
11171;SDS011;5642;50.830;12.082;2022-12-07T07:07:54;1.65;;;1.55;;
11171;SDS011;5642;50.830;12.082;2022-12-07T07:10:20;1.65;;;1.55;;
11171;SDS011;5642;50.830;12.082;2022-12-07T07:12:47;1.70;;;1.60;;
11171;SDS011;5642;50.830;12.082;2022-12-07T07:15:15;1.55;;;1.45;;
11171;SDS011;5642;50.830;12.082;2022-12-07T07:17:41;1.90;;;1.80;;
11171;SDS011;5642;50.830;12.082;2022-12-07T07:20:10;1.83;;;1.73;;
11171;SDS011;5642;50.830;12.082;2022-12-07T07:22:37;1.70;;;1.60;;
11171;SDS011;5642;50.830;12.082;2022-12-07T07:25:03;1.65;;;1.55;;
11171;SDS011;5642;50.830;12.082;2022-12-07T07:27:33;1.40;;;1.30;;
11171;SDS011;5642;50.830;12.082;2022-12-07T07:29:59;1.65;;;1.55;;
11171;SDS011;5642;50.830;12.082;2022-12-07T07:32:25;1.52;;;1.42;;
11171;SDS011;5642;50.830;12.082;2022-12-07T07:34:51;1.67;;;1.58;;
11171;SDS011;5642;50.830;12.082;2022-12-07T07:37:18;1.48;;;1.38;;
11171;SDS011;5642;50.830;12.082;2022-12-07T07:39:44;1.90;;;1.80;;
11171;SDS011;5642;50.830;12.082;2022-12-07T07:42:10;1.42;;;1.33;;
11171;SDS011;5642;50.830;12.082;2022-12-07T07:44:38;1.60;;;1.50;;
11171;SDS011;5642;50.830;12.082;2022-12-07T07:47:04;1.50;;;1.40;;
11171;SDS011;5642;50.830;12.082;2022-12-07T07:49:30;1.77;;;1.67;;
11171;SDS011;5642;50.830;12.082;2022-12-07T07:51:57;1.60;;;1.50;;
11171;SDS011;5642;50.830;12.082;2022-12-07T07:54:25;1.70;;;1.60;;
11171;SDS011;5642;50.830;12.082;2022-12-07T07:56:52;1.38;;;1.30;;
11171;SDS011;5642;50.830;12.082;2022-12-07T07:59:19;1.70;;;1.60;;
11171;SDS011;5642;50.830;12.082;2022-12-07T08:01:45;1.75;;;1.65;;
11171;SDS011;5642;50.830;12.082;2022-12-07T08:04:14;1.63;;;1.52;;
11171;SDS011;5642;50.830;12.082;2022-12-07T08:06:42;1.50;;;1.40;;
11171;SDS011;5642;50.830;12.082;2022-12-07T08:09:08;1.60;;;1.50;;
11171;SDS011;5642;50.830;12.082;2022-12-07T08:11:37;1.63;;;1.52;;
11171;SDS011;5642;50.830;12.082;2022-12-07T08:14:03;1.58;;;1.48;;
11171;SDS011;5642;50.830;12.082;2022-12-07T08:16:33;1.77;;;1.55;;
11171;SDS011;5642;50.830;12.082;2022-12-07T08:18:59;1.65;;;1.55;;
11171;SDS011;5642;50.830;12.082;2022-12-07T08:21:27;1.80;;;1.70;;
11171;SDS011;5642;50.830;12.082;2022-12-07T08:23:53;1.63;;;1.52;;
11171;SDS011;5642;50.830;12.082;2022-12-07T08:26:20;1.77;;;1.67;;
11171;SDS011;5642;50.830;12.082;2022-12-07T08:28:48;1.90;;;1.70;;
11171;SDS011;5642;50.830;12.082;2022-12-07T09:05:41;1.70;;;1.60;;
11171;SDS011;5642;50.830;12.082;2022-12-07T09:08:08;1.70;;;1.60;;
11171;SDS011;5642;50.830;12.082;2022-12-07T09:10:34;1.70;;;1.60;;
11171;SDS011;5642;50.830;12.082;2022-12-07T09:13:01;1.60;;;1.50;;
11171;SDS011;5642;50.830;12.082;2022-12-07T09:15:28;1.70;;;1.60;;
11171;SDS011;5642;50.830;12.082;2022-12-07T09:17:54;1.60;;;1.50;;
11171;SDS011;5642;50.830;12.082;2022-12-07T09:20:22;1.77;;;1.67;;
11171;SDS011;5642;50.830;12.082;2022-12-07T09:22:48;1.50;;;1.40;;
11171;SDS011;5642;50.830;12.082;2022-12-07T09:25:14;1.70;;;1.60;;
11171;SDS011;5642;50.830;12.082;2022-12-07T09:27:41;1.70;;;1.60;;
11171;SDS011;5642;50.830;12.082;2022-12-07T09:30:08;1.60;;;1.50;;
11171;SDS011;5642;50.830;12.082;2022-12-07T09:32:35;1.65;;;1.55;;
11171;SDS011;5642;50.830;12.082;2022-12-07T09:35:01;1.50;;;1.40;;
11171;SDS011;5642;50.830;12.082;2022-12-07T09:37:27;1.50;;;1.40;;
11171;SDS011;5642;50.830;12.082;2022-12-07T09:39:53;1.50;;;1.40;;
11171;SDS011;5642;50.830;12.082;2022-12-07T09:45:17;1.30;;;1.20;;
11171;SDS011;5642;50.830;12.082;2022-12-07T09:48:09;1.35;;;1.25;;
11171;SDS011;5642;50.830;12.082;2022-12-07T09:50:43;1.73;;;1.63;;
11171;SDS011;5642;50.830;12.082;2022-12-07T09:53:28;1.63;;;1.52;;
11171;SDS011;5642;50.830;12.082;2022-12-07T09:55:59;1.48;;;1.38;;
11171;SDS011;5642;50.830;12.082;2022-12-07T09:58:27;1.50;;;1.40;;
11171;SDS011;5642;50.830;12.082;2022-12-07T10:01:00;1.50;;;1.40;;
11171;SDS011;5642;50.830;12.082;2022-12-07T10:03:37;1.98;;;1.80;;
11171;SDS011;5642;50.830;12.082;2022-12-07T10:06:04;1.50;;;1.38;;
11171;SDS011;5642;50.830;12.082;2022-12-07T10:08:32;1.42;;;1.33;;
11171;SDS011;5642;50.830;12.082;2022-12-07T10:10:59;1.60;;;1.45;;
11171;SDS011;5642;50.830;12.082;2022-12-07T10:13:36;1.50;;;1.40;;
11171;SDS011;5642;50.830;12.082;2022-12-07T10:18:53;2.92;;;1.40;;
11171;SDS011;5642;50.830;12.082;2022-12-07T10:21:25;1.20;;;1.10;;
11171;SDS011;5642;50.830;12.082;2022-12-07T10:31:49;1.20;;;1.10;;
11171;SDS011;5642;50.830;12.082;2022-12-07T10:34:26;1.17;;;1.08;;
11171;SDS011;5642;50.830;12.082;2022-12-07T10:37:07;1.13;;;1.13;;
11171;SDS011;5642;50.830;12.082;2022-12-07T10:42:22;1.25;;;1.20;;
11171;SDS011;5642;50.830;12.082;2022-12-07T10:45:06;0.90;;;0.90;;
11171;SDS011;5642;50.830;12.082;2022-12-07T10:47:49;1.10;;;1.00;;
11171;SDS011;5642;50.830;12.082;2022-12-07T11:24:59;1.10;;;1.05;;
11171;SDS011;5642;50.830;12.082;2022-12-07T11:28:00;1.13;;;1.02;;
11171;SDS011;5642;50.830;12.082;2022-12-07T11:39:02;1.00;;;0.90;;
11171;SDS011;5642;50.830;12.082;2022-12-07T11:41:35;1.13;;;0.90;;
11171;SDS011;5642;50.830;12.082;2022-12-07T11:47:45;1.40;;;1.00;;
11171;SDS011;5642;50.830;12.082;2022-12-07T11:53:03;0.85;;;0.70;;
11171;SDS011;5642;50.830;12.082;2022-12-07T11:55:42;0.93;;;0.82;;
11171;SDS011;5642;50.830;12.082;2022-12-07T12:06:40;0.90;;;0.90;;
11171;SDS011;5642;50.830;12.082;2022-12-07T12:14:53;1.10;;;1.00;;
11171;SDS011;5642;50.830;12.082;2022-12-07T12:23:19;0.98;;;0.95;;
11171;SDS011;5642;50.830;12.082;2022-12-07T12:25:53;1.27;;;0.80;;
11171;SDS011;5642;50.830;12.082;2022-12-07T12:33:49;1.65;;;0.95;;
11171;SDS011;5642;50.830;12.082;2022-12-07T12:37:00;0.80;;;0.80;;
11171;SDS011;5642;50.830;12.082;2022-12-07T12:41:55;0.70;;;0.70;;
11171;SDS011;5642;50.830;12.082;2022-12-07T12:47:04;1.90;;;1.00;;
11171;SDS011;5642;50.830;12.082;2022-12-07T12:50:20;1.00;;;0.88;;
11171;SDS011;5642;50.830;12.082;2022-12-07T12:55:49;0.80;;;0.80;;
11171;SDS011;5642;50.830;12.082;2022-12-07T12:58:48;0.77;;;0.77;;
11171;SDS011;5642;50.830;12.082;2022-12-07T13:04:26;0.68;;;0.68;;
11171;SDS011;5642;50.830;12.082;2022-12-07T13:06:58;0.80;;;0.63;;
11171;SDS011;5642;50.830;12.082;2022-12-07T13:09:29;0.73;;;0.73;;
11171;SDS011;5642;50.830;12.082;2022-12-07T13:12:05;0.70;;;0.70;;
11171;SDS011;5642;50.830;12.082;2022-12-07T13:14:43;0.75;;;0.75;;
11171;SDS011;5642;50.830;12.082;2022-12-07T13:20:06;0.80;;;0.80;;
11171;SDS011;5642;50.830;12.082;2022-12-07T13:22:38;0.73;;;0.70;;
11171;SDS011;5642;50.830;12.082;2022-12-07T13:25:08;0.85;;;0.70;;
11171;SDS011;5642;50.830;12.082;2022-12-07T13:27:52;1.17;;;0.90;;
11171;SDS011;5642;50.830;12.082;2022-12-07T13:30:45;1.42;;;0.80;;
11171;SDS011;5642;50.830;12.082;2022-12-07T13:33:33;0.70;;;0.70;;
11171;SDS011;5642;50.830;12.082;2022-12-07T13:36:01;0.70;;;0.70;;
11171;SDS011;5642;50.830;12.082;2022-12-07T13:38:33;0.82;;;0.77;;
11171;SDS011;5642;50.830;12.082;2022-12-07T13:41:15;0.70;;;0.70;;
11171;SDS011;5642;50.830;12.082;2022-12-07T13:43:49;0.60;;;0.60;;
11171;SDS011;5642;50.830;12.082;2022-12-07T13:46:40;0.77;;;0.70;;
11171;SDS011;5642;50.830;12.082;2022-12-07T13:49:17;0.80;;;0.80;;
11171;SDS011;5642;50.830;12.082;2022-12-07T13:51:51;0.70;;;0.60;;
11171;SDS011;5642;50.830;12.082;2022-12-07T13:54:22;0.70;;;0.70;;
11171;SDS011;5642;50.830;12.082;2022-12-07T13:56:50;0.93;;;0.70;;
11171;SDS011;5642;50.830;12.082;2022-12-07T13:59:24;0.70;;;0.70;;
11171;SDS011;5642;50.830;12.082;2022-12-07T14:01:53;0.85;;;0.85;;
11171;SDS011;5642;50.830;12.082;2022-12-07T14:04:31;0.60;;;0.60;;
11171;SDS011;5642;50.830;12.082;2022-12-07T14:07:15;0.63;;;0.63;;
11171;SDS011;5642;50.830;12.082;2022-12-07T14:17:16;0.52;;;0.52;;
11171;SDS011;5642;50.830;12.082;2022-12-07T14:25:22;0.68;;;0.68;;
11171;SDS011;5642;50.830;12.082;2022-12-07T14:27:59;0.52;;;0.52;;
11171;SDS011;5642;50.830;12.082;2022-12-07T14:30:28;1.05;;;0.95;;
11171;SDS011;5642;50.830;12.082;2022-12-07T14:33:05;0.88;;;0.88;;
11171;SDS011;5642;50.830;12.082;2022-12-07T14:35:34;0.80;;;0.80;;
11171;SDS011;5642;50.830;12.082;2022-12-07T14:38:07;1.15;;;0.63;;
11171;SDS011;5642;50.830;12.082;2022-12-07T14:40:35;0.75;;;0.75;;
11171;SDS011;5642;50.830;12.082;2022-12-07T14:43:03;0.80;;;0.80;;
11171;SDS011;5642;50.830;12.082;2022-12-07T14:45:34;1.13;;;1.00;;
11171;SDS011;5642;50.830;12.082;2022-12-07T14:48:03;1.08;;;0.98;;
11171;SDS011;5642;50.830;12.082;2022-12-07T14:50:33;1.10;;;1.00;;
11171;SDS011;5642;50.830;12.082;2022-12-07T14:53:07;1.10;;;1.00;;
11171;SDS011;5642;50.830;12.082;2022-12-07T14:55:39;0.80;;;0.80;;
11171;SDS011;5642;50.830;12.082;2022-12-07T14:58:10;0.80;;;0.80;;
11171;SDS011;5642;50.830;12.082;2022-12-07T15:00:41;0.80;;;0.80;;
11171;SDS011;5642;50.830;12.082;2022-12-07T15:03:10;1.45;;;0.70;;
11171;SDS011;5642;50.830;12.082;2022-12-07T15:05:39;0.82;;;0.60;;
11171;SDS011;5642;50.830;12.082;2022-12-07T15:08:08;0.77;;;0.60;;
11171;SDS011;5642;50.830;12.082;2022-12-07T15:10:39;0.65;;;0.65;;
11171;SDS011;5642;50.830;12.082;2022-12-07T15:13:10;0.75;;;0.65;;
11171;SDS011;5642;50.830;12.082;2022-12-07T15:16:01;0.70;;;0.63;;
11171;SDS011;5642;50.830;12.082;2022-12-07T15:18:27;0.65;;;0.65;;
11171;SDS011;5642;50.830;12.082;2022-12-07T15:20:54;0.70;;;0.70;;
11171;SDS011;5642;50.830;12.082;2022-12-07T15:23:21;1.35;;;0.70;;
11171;SDS011;5642;50.830;12.082;2022-12-07T15:25:48;1.08;;;0.60;;
11171;SDS011;5642;50.830;12.082;2022-12-07T15:28:16;0.73;;;0.63;;
11171;SDS011;5642;50.830;12.082;2022-12-07T15:30:50;0.60;;;0.60;;
11171;SDS011;5642;50.830;12.082;2022-12-07T15:33:17;0.60;;;0.60;;
11171;SDS011;5642;50.830;12.082;2022-12-07T15:35:46;0.60;;;0.60;;
11171;SDS011;5642;50.830;12.082;2022-12-07T15:38:13;0.95;;;0.80;;
11171;SDS011;5642;50.830;12.082;2022-12-07T15:40:41;1.08;;;0.70;;
11171;SDS011;5642;50.830;12.082;2022-12-07T15:43:10;0.57;;;0.57;;
11171;SDS011;5642;50.830;12.082;2022-12-07T15:45:58;0.95;;;0.50;;
11171;SDS011;5642;50.830;12.082;2022-12-07T15:48:27;0.63;;;0.63;;
11171;SDS011;5642;50.830;12.082;2022-12-07T15:51:02;0.75;;;0.75;;
11171;SDS011;5642;50.830;12.082;2022-12-07T15:53:33;0.60;;;0.60;;
11171;SDS011;5642;50.830;12.082;2022-12-07T15:56:00;0.70;;;0.70;;
11171;SDS011;5642;50.830;12.082;2022-12-07T15:58:26;0.75;;;0.75;;
11171;SDS011;5642;50.830;12.082;2022-12-07T16:00:57;0.82;;;0.82;;
11171;SDS011;5642;50.830;12.082;2022-12-07T16:03:39;0.63;;;0.63;;
11171;SDS011;5642;50.830;12.082;2022-12-07T16:09:37;0.80;;;0.73;;
11171;SDS011;5642;50.830;12.082;2022-12-07T16:12:05;1.00;;;0.70;;
11171;SDS011;5642;50.830;12.082;2022-12-07T16:14:34;1.13;;;1.02;;
11171;SDS011;5642;50.830;12.082;2022-12-07T16:17:15;1.10;;;1.00;;
11171;SDS011;5642;50.830;12.082;2022-12-07T16:19:41;0.85;;;0.85;;
11171;SDS011;5642;50.830;12.082;2022-12-07T16:22:11;0.93;;;0.70;;
11171;SDS011;5642;50.830;12.082;2022-12-07T16:24:42;0.70;;;0.70;;
11171;SDS011;5642;50.830;12.082;2022-12-07T16:27:10;0.68;;;0.60;;
11171;SDS011;5642;50.830;12.082;2022-12-07T16:29:37;0.70;;;0.70;;
11171;SDS011;5642;50.830;12.082;2022-12-07T16:32:05;0.52;;;0.52;;
11171;SDS011;5642;50.830;12.082;2022-12-07T16:34:31;0.70;;;0.70;;
11171;SDS011;5642;50.830;12.082;2022-12-07T16:37:05;0.80;;;0.80;;
11171;SDS011;5642;50.830;12.082;2022-12-07T16:39:45;0.77;;;0.77;;
11171;SDS011;5642;50.830;12.082;2022-12-07T16:42:21;0.70;;;0.70;;
11171;SDS011;5642;50.830;12.082;2022-12-07T16:45:01;0.93;;;0.80;;
11171;SDS011;5642;50.830;12.082;2022-12-07T16:47:29;0.80;;;0.80;;
11171;SDS011;5642;50.830;12.082;2022-12-07T16:55:26;1.20;;;0.70;;
11171;SDS011;5642;50.830;12.082;2022-12-07T16:57:56;0.70;;;0.70;;
11171;SDS011;5642;50.830;12.082;2022-12-07T17:00:23;0.63;;;0.60;;
11171;SDS011;5642;50.830;12.082;2022-12-07T17:02:50;0.70;;;0.70;;
11171;SDS011;5642;50.830;12.082;2022-12-07T17:05:17;0.68;;;0.68;;
11171;SDS011;5642;50.830;12.082;2022-12-07T17:07:44;0.80;;;0.70;;
11171;SDS011;5642;50.830;12.082;2022-12-07T17:10:11;0.70;;;0.70;;
11171;SDS011;5642;50.830;12.082;2022-12-07T17:12:41;0.88;;;0.80;;
11171;SDS011;5642;50.830;12.082;2022-12-07T17:15:13;0.93;;;0.70;;
11171;SDS011;5642;50.830;12.082;2022-12-07T17:17:53;0.70;;;0.70;;
11171;SDS011;5642;50.830;12.082;2022-12-07T17:20:23;0.70;;;0.70;;
11171;SDS011;5642;50.830;12.082;2022-12-07T17:22:52;1.33;;;0.70;;
11171;SDS011;5642;50.830;12.082;2022-12-07T17:25:19;1.00;;;1.00;;
11171;SDS011;5642;50.830;12.082;2022-12-07T17:27:46;0.88;;;0.65;;
11171;SDS011;5642;50.830;12.082;2022-12-07T17:30:12;1.33;;;1.10;;
11171;SDS011;5642;50.830;12.082;2022-12-07T17:32:41;1.30;;;1.20;;
11171;SDS011;5642;50.830;12.082;2022-12-07T17:35:09;2.22;;;1.30;;
11171;SDS011;5642;50.830;12.082;2022-12-07T17:37:35;1.40;;;1.30;;
11171;SDS011;5642;50.830;12.082;2022-12-07T17:40:01;1.95;;;1.60;;
11171;SDS011;5642;50.830;12.082;2022-12-07T17:42:29;1.73;;;1.63;;
11171;SDS011;5642;50.830;12.082;2022-12-07T17:45:03;1.95;;;1.67;;
11171;SDS011;5642;50.830;12.082;2022-12-07T17:47:30;2.53;;;1.80;;
11171;SDS011;5642;50.830;12.082;2022-12-07T17:49:57;1.65;;;1.55;;
11171;SDS011;5642;50.830;12.082;2022-12-07T17:52:25;1.23;;;1.13;;
11171;SDS011;5642;50.830;12.082;2022-12-07T17:55:11;1.20;;;1.10;;
11171;SDS011;5642;50.830;12.082;2022-12-07T17:57:37;1.08;;;0.95;;
11171;SDS011;5642;50.830;12.082;2022-12-07T18:00:07;1.05;;;0.95;;
11171;SDS011;5642;50.830;12.082;2022-12-07T18:02:36;1.10;;;1.00;;
11171;SDS011;5642;50.830;12.082;2022-12-07T18:05:04;0.90;;;0.90;;
11171;SDS011;5642;50.830;12.082;2022-12-07T18:07:31;0.75;;;0.75;;
11171;SDS011;5642;50.830;12.082;2022-12-07T18:10:01;0.80;;;0.80;;
11171;SDS011;5642;50.830;12.082;2022-12-07T18:12:38;1.15;;;1.00;;
11171;SDS011;5642;50.830;12.082;2022-12-07T18:15:06;0.80;;;0.80;;
11171;SDS011;5642;50.830;12.082;2022-12-07T18:17:33;1.73;;;1.60;;
11171;SDS011;5642;50.830;12.082;2022-12-07T18:19:59;2.50;;;1.88;;
11171;SDS011;5642;50.830;12.082;2022-12-07T18:22:31;2.55;;;2.10;;
11171;SDS011;5642;50.830;12.082;2022-12-07T18:25:04;2.63;;;2.05;;